Time;durP1;ratioP1;P1;durP2;ratioP2;P2;SDS_P1;SDS_P2;PMS_P1;PMS_P2;Temp;Humidity;BMP_temperature;BMP_pressure;BME280_temperature;BME280_humidity;BME280_pressure;Samples;Min_cycle;Max_cycle;Signal;HPM_P1;HPM_P2
2023/05/21 00:01:16;;;;;;;0.10;0.10;;;;;;;10.99;83.09;100395.16;5067174;28;20512;-69
2023/05/21 00:03:44;;;;;;;0.10;0.10;;;;;;;10.90;82.91;100381.97;5063880;28;20542;-69
2023/05/21 00:06:12;;;;;;;0.10;0.10;;;;;;;11.00;82.92;100385.88;5065512;28;20045;-70
2023/05/21 00:08:38;;;;;;;0.10;0.10;;;;;;;11.02;82.68;100386.41;5063735;28;20431;-69
2023/05/21 00:11:05;;;;;;;0.10;0.10;;;;;;;11.05;82.68;100381.25;5065688;28;20458;-69
2023/05/21 00:13:31;;;;;;;0.10;0.10;;;;;;;11.09;82.55;100380.72;5065283;28;20045;-69
2023/05/21 00:15:58;;;;;;;0.10;0.10;;;;;;;11.07;82.46;100378.25;5048088;28;20040;-73
2023/05/21 00:18:25;;;;;;;0.10;0.10;;;;;;;11.06;82.30;100377.44;5064948;28;20080;-73
2023/05/21 00:20:53;;;;;;;0.10;0.10;;;;;;;11.07;82.35;100372.75;5067004;28;20470;-69
2023/05/21 00:23:20;;;;;;;0.10;0.10;;;;;;;11.12;82.23;100380.19;5046226;28;20459;-69
2023/05/21 00:25:46;;;;;;;0.10;0.10;;;;;;;11.15;82.13;100376.91;5066556;28;20125;-69
2023/05/21 00:28:13;;;;;;;0.10;0.10;;;;;;;11.16;82.06;100379.41;5066092;28;20205;-69
2023/05/21 00:30:39;;;;;;;0.10;0.10;;;;;;;11.19;82.09;100372.59;5030444;28;20318;-69
2023/05/21 00:33:06;;;;;;;0.10;0.10;;;;;;;11.19;82.15;100367.91;5068022;28;20098;-69
2023/05/21 00:35:34;;;;;;;0.10;0.10;;;;;;;11.23;82.08;100365.47;5065805;28;20056;-69
2023/05/21 00:38:00;;;;;;;;;;;;;;;11.25;81.75;100370.69;5071039;28;20048;-69
2023/05/21 00:40:26;;;;;;;0.10;0.10;;;;;;;11.26;81.77;100362.22;5067247;28;20405;-73
2023/05/21 00:42:55;;;;;;;0.10;0.10;;;;;;;11.25;82.00;100368.78;5065547;28;20531;-73
2023/05/21 00:45:24;;;;;;;0.10;0.10;;;;;;;11.20;82.40;100372.31;5066384;28;20052;-73
2023/05/21 00:47:53;;;;;;;0.10;0.10;;;;;;;11.23;82.81;100373.69;5082298;28;20093;-73
2023/05/21 00:50:20;;;;;;;0.10;0.10;;;;;;;11.27;82.72;100376.72;5067273;28;20166;-73
2023/05/21 00:52:48;;;;;;;0.10;0.10;;;;;;;11.24;82.74;100375.34;5065433;28;20053;-72
2023/05/21 00:55:15;;;;;;;0.10;0.10;;;;;;;11.23;82.88;100367.38;5066575;28;20132;-72
2023/05/21 00:57:41;;;;;;;0.10;0.10;;;;;;;11.11;82.96;100360.22;5064645;28;20419;-73
2023/05/21 01:00:09;;;;;;;0.10;0.10;;;;;;;11.14;82.63;100376.09;5047228;28;20450;-69
2023/05/21 01:02:36;;;;;;;0.10;0.10;;;;;;;11.18;82.94;100377.22;5065185;28;20052;-69
2023/05/21 01:05:06;;;;;;;0.10;0.10;;;;;;;11.19;82.64;100378.06;5066237;28;20052;-69
2023/05/21 01:07:34;;;;;;;0.10;0.10;;;;;;;11.16;82.80;100375.81;5066306;28;20048;-69
2023/05/21 01:10:06;;;;;;;0.10;0.10;;;;;;;11.16;82.82;100376.66;5066514;28;20060;-69
2023/05/21 01:12:34;;;;;;;0.10;0.10;;;;;;;11.10;82.78;100368.69;5049968;28;20083;-69
2023/05/21 01:15:02;;;;;;;0.10;0.10;;;;;;;11.12;83.05;100375.56;5065717;28;20048;-69
2023/05/21 01:17:32;;;;;;;0.10;0.10;;;;;;;11.10;83.51;100376.91;5065733;28;20426;-69
2023/05/21 01:19:59;;;;;;;0.10;0.10;;;;;;;11.12;83.36;100371.97;5066175;28;20073;-69
2023/05/21 01:22:28;;;;;;;0.10;0.10;;;;;;;11.08;83.63;100371.69;5063872;28;20079;-70
2023/05/21 01:24:56;;;;;;;0.10;0.10;;;;;;;11.10;83.68;100376.91;5045272;28;20048;-69
2023/05/21 01:27:22;;;;;;;0.10;0.10;;;;;;;11.09;84.05;100370.63;5063146;28;20106;-69
2023/05/21 01:29:49;;;;;;;0.10;0.10;;;;;;;11.09;84.10;100372.50;5062209;28;20048;-69
2023/05/21 01:32:26;;;;;;;0.10;0.10;;;;;;;11.12;84.38;100381.03;5067948;28;20127;-73
2023/05/21 01:35:00;;;;;;;0.10;0.10;;;;;;;11.09;83.95;100381.56;5050717;28;20079;-73
2023/05/21 01:37:33;;;;;;;0.10;0.10;;;;;;;11.03;84.22;100382.59;5069266;28;20055;-69
2023/05/21 01:40:07;;;;;;;0.10;0.10;;;;;;;11.02;84.47;100376.31;5085495;28;20097;-69
2023/05/21 01:42:35;;;;;;;0.10;0.10;;;;;;;10.98;84.84;100375.19;5086441;28;20507;-69
2023/05/21 01:45:05;;;;;;;0.10;0.10;;;;;;;11.02;84.93;100375.47;5085212;28;20419;-69
2023/05/21 01:47:31;;;;;;;0.10;0.10;;;;;;;11.05;85.02;100375.78;5051931;28;20165;-69
2023/05/21 01:50:00;;;;;;;0.10;0.10;;;;;;;11.13;85.40;100370.88;5067242;28;20519;-69
2023/05/21 01:52:26;;;;;;;0.10;0.10;;;;;;;11.23;84.92;100381.91;5049497;28;20050;-69
2023/05/21 01:54:53;;;;;;;0.10;0.10;;;;;;;11.25;84.49;100373.44;5069789;28;20155;-69
2023/05/21 01:57:21;;;;;;;0.10;0.10;;;;;;;11.28;84.62;100370.16;5081673;28;20536;-69
2023/05/21 01:59:47;;;;;;;0.30;0.10;;;;;;;11.28;84.37;100370.97;5086062;28;20052;-69
2023/05/21 02:02:14;;;;;;;0.10;0.10;;;;;;;11.32;84.31;100369.38;5085214;28;20044;-69
2023/05/21 02:04:40;;;;;;;0.10;0.10;;;;;;;11.33;84.18;100368.28;5067751;28;20622;-69
2023/05/21 02:07:06;;;;;;;0.10;0.10;;;;;;;11.33;84.20;100364.72;5050689;28;20036;-69
2023/05/21 02:09:33;;;;;;;0.10;0.10;;;;;;;11.37;84.16;100368.56;5066935;28;20134;-69
2023/05/21 02:12:00;;;;;;;0.10;0.10;;;;;;;11.38;83.78;100369.38;5050442;28;20172;-70
2023/05/21 02:14:28;;;;;;;0.10;0.10;;;;;;;11.40;83.96;100370.78;5085702;28;20488;-69
2023/05/21 02:16:56;;;;;;;0.10;0.10;;;;;;;11.33;83.37;100360.06;5050793;28;20082;-69
2023/05/21 02:19:23;;;;;;;0.10;0.10;;;;;;;11.31;83.50;100362.22;5067489;28;20052;-69
2023/05/21 02:21:49;;;;;;;0.10;0.10;;;;;;;11.35;83.53;100373.47;5032069;28;20052;-69
2023/05/21 02:24:15;;;;;;;0.10;0.10;;;;;;;11.39;83.67;100368.31;5046432;28;20044;-68
2023/05/21 02:26:42;;;;;;;0.10;0.10;;;;;;;11.44;83.38;100369.16;5084966;28;20054;-69
2023/05/21 02:29:08;;;;;;;0.10;0.10;;;;;;;11.41;83.28;100372.44;5066243;28;20463;-68
2023/05/21 02:31:36;;;;;;;0.10;0.10;;;;;;;11.40;83.30;100367.22;5083653;28;20064;-69
2023/05/21 02:34:02;;;;;;;0.10;0.10;;;;;;;11.42;83.21;100367.75;5086594;28;20098;-68
2023/05/21 02:36:32;;;;;;;0.10;0.10;;;;;;;11.43;83.01;100369.41;5083871;28;20055;-69
2023/05/21 02:38:58;;;;;;;0.10;0.10;;;;;;;11.44;83.16;100373.78;5067167;28;20094;-69
2023/05/21 02:41:25;;;;;;;0.10;0.10;;;;;;;11.39;82.89;100373.78;5084491;28;20063;-68
2023/05/21 02:43:51;;;;;;;0.10;0.10;;;;;;;11.35;83.16;100368.00;5048816;28;20047;-68
2023/05/21 02:46:18;;;;;;;0.10;0.10;;;;;;;11.43;82.92;100369.41;5067422;28;20051;-68
2023/05/21 02:48:45;;;;;;;0.10;0.10;;;;;;;11.48;82.94;100375.72;5084428;28;20047;-69
2023/05/21 02:51:12;;;;;;;0.10;0.10;;;;;;;11.56;82.72;100373.59;5064470;28;20048;-69
2023/05/21 02:53:38;;;;;;;0.10;0.10;;;;;;;11.60;82.38;100375.50;5084506;28;20055;-69
2023/05/21 02:56:04;;;;;;;0.10;0.10;;;;;;;11.59;82.46;100364.84;5084828;28;20147;-69
2023/05/21 02:58:32;;;;;;;0.10;0.10;;;;;;;11.69;82.36;100375.81;5075197;28;20051;-69
2023/05/21 03:00:58;;;;;;;0.10;0.10;;;;;;;11.72;81.94;100378.03;5054857;28;20515;-68
2023/05/21 03:03:26;;;;;;;0.10;0.10;;;;;;;11.71;82.04;100370.91;5051026;28;20051;-69
2023/05/21 03:05:54;;;;;;;0.10;0.10;;;;;;;11.74;81.82;100369.53;5068539;28;20052;-69
2023/05/21 03:08:20;;;;;;;;;;;;;;;11.76;81.95;100372.81;5065528;28;20557;-69
2023/05/21 03:10:46;;;;;;;0.10;0.10;;;;;;;11.75;81.78;100369.28;5068348;28;20457;-69
2023/05/21 03:13:13;;;;;;;0.10;0.10;;;;;;;11.67;81.77;100366.22;5067449;28;20040;-70
2023/05/21 03:15:39;;;;;;;0.10;0.10;;;;;;;11.61;81.87;100368.13;5033541;28;20501;-68
2023/05/21 03:18:05;;;;;;;0.10;0.10;;;;;;;11.64;82.18;100370.31;5086337;28;20055;-68
2023/05/21 03:20:32;;;;;;;0.10;0.10;;;;;;;11.67;82.18;100375.25;5083781;28;20071;-69
2023/05/21 03:23:02;;;;;;;0.10;0.10;;;;;;;11.74;81.86;100378.59;5071139;28;20537;-69
2023/05/21 03:25:29;;;;;;;0.10;0.10;;;;;;;11.77;81.78;100369.81;5082121;28;20400;-69
2023/05/21 03:27:55;;;;;;;0.10;0.10;;;;;;;11.87;81.48;100374.50;5061716;28;20131;-69
2023/05/21 03:30:48;;;;;;;0.10;0.10;;;;;;;11.84;81.50;100375.06;5066933;28;20066;-68
2023/05/21 03:33:33;;;;;;;0.10;0.10;;;;;;;11.82;80.87;100377.25;5067599;28;20044;-67
2023/05/21 03:36:02;;;;;;;0.10;0.10;;;;;;;11.72;81.07;100372.56;5066382;28;20040;-69
2023/05/21 03:38:33;;;;;;;0.10;0.10;;;;;;;11.70;81.05;100371.16;5060138;28;20059;-69
2023/05/21 03:40:59;;;;;;;0.10;0.10;;;;;;;11.67;81.31;100372.53;5081271;28;20055;-72
2023/05/21 03:43:26;;;;;;;0.10;0.10;;;;;;;11.61;81.13;100374.41;5073631;28;20078;-72
2023/05/21 03:45:54;;;;;;;0.20;0.20;;;;;;;11.61;81.76;100379.09;5066800;28;20055;-74
2023/05/21 03:48:39;;;;;;;0.10;0.10;;;;;;;11.65;81.76;100377.44;5082967;28;20519;-73
2023/05/21 03:51:06;;;;;;;0.10;0.10;;;;;;;11.68;81.57;100384.31;5062019;28;20131;-73
2023/05/21 03:53:35;;;;;;;0.10;0.10;;;;;;;11.61;81.52;100396.31;5052353;28;20507;-72
2023/05/21 03:56:01;;;;;;;0.10;0.10;;;;;;;11.53;81.54;100393.28;5066671;28;20494;-72
2023/05/21 03:58:30;;;;;;;0.10;0.10;;;;;;;11.48;81.90;100388.63;5047236;28;20101;-74
2023/05/21 04:00:56;;;;;;;0.10;0.10;;;;;;;11.53;82.05;100385.06;5066092;28;20109;-72
2023/05/21 04:03:23;;;;;;;0.10;0.10;;;;;;;11.49;82.25;100388.34;5066651;28;20101;-73
2023/05/21 04:05:49;;;;;;;0.10;0.10;;;;;;;11.53;82.04;100390.53;5083321;28;20430;-72
2023/05/21 04:08:15;;;;;;;0.10;0.10;;;;;;;11.54;82.06;100382.06;5064386;28;20139;-73
2023/05/21 04:10:43;;;;;;;0.10;0.10;;;;;;;11.56;81.68;100388.09;5085297;28;20465;-73
2023/05/21 04:13:09;;;;;;;0.10;0.10;;;;;;;11.62;81.52;100380.72;5063657;28;20093;-73
2023/05/21 04:15:37;;;;;;;0.10;0.10;;;;;;;11.72;81.17;100383.50;5065993;28;20058;-73
2023/05/21 04:18:04;;;;;;;0.10;0.10;;;;;;;11.77;80.81;100382.69;5061546;28;20935;-72
2023/05/21 04:20:30;;;;;;;0.13;0.13;;;;;;;11.72;80.90;100383.50;5067056;28;20352;-73
2023/05/21 04:22:56;;;;;;;0.10;0.10;;;;;;;11.75;81.09;100382.97;5037175;28;20040;-73
2023/05/21 04:25:22;;;;;;;0.20;0.20;;;;;;;11.77;80.75;100383.53;5087123;28;20048;-73
2023/05/21 04:27:50;;;;;;;0.10;0.10;;;;;;;11.75;81.00;100380.22;5050625;28;20120;-71
2023/05/21 04:30:18;;;;;;;0.10;0.10;;;;;;;11.74;80.73;100380.50;5070064;28;20063;-73
2023/05/21 04:32:46;;;;;;;0.10;0.10;;;;;;;11.71;80.76;100376.41;5071068;28;20040;-73
2023/05/21 04:35:16;;;;;;;0.10;0.10;;;;;;;11.75;80.52;100374.75;5069961;28;20048;-73
2023/05/21 04:37:44;;;;;;;0.10;0.10;;;;;;;11.78;80.49;100382.44;5067177;28;20044;-73
2023/05/21 04:40:16;;;;;;;0.10;0.10;;;;;;;11.77;80.37;100374.47;5067905;28;20048;-72
2023/05/21 04:42:45;;;;;;;0.10;0.10;;;;;;;11.78;80.29;100381.59;5068129;28;20051;-72
2023/05/21 04:45:13;;;;;;;0.10;0.10;;;;;;;11.90;80.07;100373.97;5070219;28;20602;-72
2023/05/21 04:47:42;;;;;;;0.10;0.10;;;;;;;12.11;79.19;100375.97;5032761;28;20047;-72
2023/05/21 04:50:09;;;;;;;0.10;0.10;;;;;;;12.25;78.69;100384.47;5090149;28;20048;-73
2023/05/21 04:52:35;;;;;;;0.10;0.10;;;;;;;12.29;77.86;100372.69;5068232;28;20564;-72
2023/05/21 04:55:02;;;;;;;0.10;0.10;;;;;;;12.31;77.02;100376.00;5065076;28;20044;-73
2023/05/21 04:57:29;;;;;;;0.17;0.17;;;;;;;12.31;76.94;100381.47;5062156;28;20131;-73
2023/05/21 04:59:56;;;;;;;0.10;0.10;;;;;;;12.52;76.72;100387.00;5084868;28;20117;-72
2023/05/21 05:02:24;;;;;;;0.10;0.10;;;;;;;12.71;75.83;100392.75;5067917;28;20076;-73
2023/05/21 05:04:50;;;;;;;;;;;;;;;12.76;75.55;100390.00;5069373;28;20097;-73
2023/05/21 05:07:16;;;;;;;0.10;0.10;;;;;;;12.75;74.55;100384.78;5087309;28;19928;-69
2023/05/21 05:09:43;;;;;;;0.10;0.10;;;;;;;12.65;74.29;100390.31;5084704;28;20310;-69
2023/05/21 05:12:09;;;;;;;0.10;0.10;;;;;;;12.50;74.27;100391.09;5052332;28;20143;-68
2023/05/21 05:14:36;;;;;;;0.10;0.10;;;;;;;12.28;74.45;100393.00;5068254;28;20054;-69
2023/05/21 05:17:02;;;;;;;0.10;0.10;;;;;;;12.13;75.39;100391.06;5018273;28;20058;-69
2023/05/21 05:19:30;;;;;;;0.10;0.10;;;;;;;12.04;75.97;100377.06;5049698;28;20569;-71
2023/05/21 05:21:57;;;;;;;0.10;0.10;;;;;;;12.09;76.19;100394.59;5049969;28;20055;-69
2023/05/21 05:24:23;;;;;;;0.10;0.10;;;;;;;12.00;76.35;100397.03;5084375;28;20036;-69
2023/05/21 05:26:50;;;;;;;0.10;0.10;;;;;;;11.98;76.79;100393.72;5086560;28;20047;-69
2023/05/21 05:29:16;;;;;;;0.10;0.10;;;;;;;12.16;76.58;100392.41;5062945;28;20043;-68
2023/05/21 05:31:42;;;;;;;0.20;0.20;;;;;;;12.38;75.90;100402.34;5066695;28;20051;-69
2023/05/21 05:34:08;;;;;;;0.10;0.10;;;;;;;12.50;75.05;100388.34;5050384;28;20292;-69
2023/05/21 05:36:36;;;;;;;0.20;0.20;;;;;;;12.61;74.85;100396.31;5066163;28;20094;-69
2023/05/21 05:39:03;;;;;;;0.10;0.10;;;;;;;12.75;74.20;100393.03;5044081;28;20537;-69
2023/05/21 05:41:29;;;;;;;0.17;0.17;;;;;;;12.91;73.91;100389.16;5065729;28;20044;-69
2023/05/21 05:43:55;;;;;;;0.10;0.10;;;;;;;13.08;73.19;100392.72;5064440;28;20056;-69
2023/05/21 05:46:25;;;;;;;0.20;0.20;;;;;;;13.13;72.36;100401.78;5052572;28;20036;-72
2023/05/21 05:48:51;;;;;;;0.10;0.10;;;;;;;13.13;72.31;100401.78;5084929;28;20044;-72
2023/05/21 05:51:17;;;;;;;0.10;0.10;;;;;;;13.08;72.31;100403.72;5048249;28;20048;-71
2023/05/21 05:53:46;;;;;;;0.20;0.20;;;;;;;12.94;72.54;100407.00;5064837;28;20044;-72
2023/05/21 05:56:12;;;;;;;0.10;0.10;;;;;;;12.85;72.26;100404.00;5049316;28;20048;-72
2023/05/21 05:58:38;;;;;;;0.10;0.10;;;;;;;12.76;72.68;100401.00;5046868;28;20075;-71
2023/05/21 06:01:13;;;;;;;0.20;0.20;;;;;;;12.70;72.54;100407.56;5079011;28;20411;-72
2023/05/21 06:03:39;;;;;;;0.20;0.20;;;;;;;12.79;72.65;100402.34;5082266;28;20076;-72
2023/05/21 06:06:12;;;;;;;0.20;0.20;;;;;;;13.01;71.65;100396.56;5051204;28;20048;-72
2023/05/21 06:08:39;;;;;;;0.20;0.20;;;;;;;13.28;70.19;100409.16;5049426;28;20047;-72
2023/05/21 06:11:07;;;;;;;0.20;0.20;;;;;;;13.51;69.85;100411.59;5084090;28;20067;-73
2023/05/21 06:13:33;;;;;;;0.20;0.20;;;;;;;13.75;69.17;100412.63;5048791;28;20058;-69
2023/05/21 06:16:00;;;;;;;0.30;0.30;;;;;;;14.20;67.39;100405.50;5066259;28;20044;-69
2023/05/21 06:18:26;;;;;;;0.20;0.20;;;;;;;14.72;66.03;100400.50;5064766;28;20048;-69
2023/05/21 06:20:52;;;;;;;0.30;0.30;;;;;;;15.17;64.14;100403.94;5048552;28;20101;-69
2023/05/21 06:23:20;;;;;;;0.30;0.30;;;;;;;15.41;62.81;100405.06;5064272;28;20050;-69
2023/05/21 06:25:47;;;;;;;0.20;0.20;;;;;;;15.78;61.81;100395.25;5084396;28;20139;-68
2023/05/21 06:28:16;;;;;;;0.30;0.30;;;;;;;16.02;60.15;100405.44;5066462;28;20048;-69
2023/05/21 06:30:42;;;;;;;0.20;0.20;;;;;;;15.85;60.47;100405.91;5066927;28;20498;-68
2023/05/21 06:33:10;;;;;;;0.20;0.20;;;;;;;15.51;59.62;100398.63;5066918;28;20040;-69
2023/05/21 06:35:38;;;;;;;0.20;0.20;;;;;;;15.08;60.55;100405.66;5050232;28;20055;-69
2023/05/21 06:38:04;;;;;;;0.20;0.20;;;;;;;14.94;61.71;100404.69;5055984;28;20052;-73
2023/05/21 06:40:31;;;;;;;0.30;0.30;;;;;;;15.00;60.91;100404.38;5063274;28;20036;-73
2023/05/21 06:42:59;;;;;;;0.20;0.20;;;;;;;15.25;59.97;100399.72;5039079;28;20055;-73
2023/05/21 06:45:46;;;;;;;0.20;0.20;;;;;;;15.41;58.85;100402.31;5073427;28;20044;-73
2023/05/21 06:48:34;;;;;;;0.20;0.20;;;;;;;15.46;58.75;100399.50;5055180;28;20593;-72
2023/05/21 06:51:00;;;;;;;0.20;0.20;;;;;;;15.51;59.04;100406.88;5038779;28;20077;-73
2023/05/21 06:53:27;;;;;;;0.28;0.20;;;;;;;15.50;59.13;100399.72;5041489;28;20051;-73
2023/05/21 06:55:54;;;;;;;0.20;0.20;;;;;;;15.45;59.44;100403.34;5072023;28;20438;-73
2023/05/21 06:58:38;;;;;;;0.20;0.20;;;;;;;15.32;59.16;100404.88;5054808;28;20036;-68
2023/05/21 07:01:06;;;;;;;0.25;0.25;;;;;;;15.09;58.98;100396.28;5053935;28;20043;-72
2023/05/21 07:03:32;;;;;;;0.20;0.20;;;;;;;15.07;58.91;100404.03;5051139;28;20051;-72
2023/05/21 07:05:59;;;;;;;0.20;0.20;;;;;;;14.97;59.21;100407.69;5072388;28;20051;-72
2023/05/21 07:08:26;;;;;;;0.30;0.30;;;;;;;15.37;58.42;100402.06;5047124;28;20044;-69
2023/05/21 07:10:52;;;;;;;0.30;0.30;;;;;;;15.65;57.69;100394.03;5067172;28;20044;-72
2023/05/21 07:13:21;;;;;;;0.30;0.30;;;;;;;16.01;56.61;100398.28;5056767;28;20089;-73
2023/05/21 07:15:47;;;;;;;0.30;0.30;;;;;;;16.11;56.63;100394.56;5070623;28;20052;-73
2023/05/21 07:18:15;;;;;;;0.30;0.30;;;;;;;16.24;55.76;100395.75;5076181;28;20048;-73
2023/05/21 07:20:42;;;;;;;0.40;0.40;;;;;;;16.76;54.76;100405.97;5037928;28;20104;-72
2023/05/21 07:23:12;;;;;;;0.30;0.30;;;;;;;17.38;52.45;100402.13;5055429;28;20040;-72
2023/05/21 07:25:38;;;;;;;0.30;0.30;;;;;;;17.15;51.57;100399.25;5060045;28;20454;-72
2023/05/21 07:28:04;;;;;;;0.20;0.20;;;;;;;16.54;52.93;100399.97;5072872;28;20044;-73
2023/05/21 07:30:31;;;;;;;0.28;0.28;;;;;;;16.07;54.40;100415.56;5041664;28;20515;-68
2023/05/21 07:32:57;;;;;;;0.20;0.20;;;;;;;15.67;55.26;100408.34;5036357;28;20036;-68
2023/05/21 07:35:25;;;;;;;0.20;0.20;;;;;;;15.28;55.97;100401.88;5056269;28;20037;-68
2023/05/21 07:37:52;;;;;;;0.30;0.30;;;;;;;15.22;56.66;100408.56;5037801;28;20076;-68
2023/05/21 07:40:18;;;;;;;0.30;0.30;;;;;;;15.23;56.25;100404.72;5046602;28;20600;-68
2023/05/21 07:42:46;;;;;;;0.30;0.30;;;;;;;15.48;55.40;100400.00;5066304;28;20133;-68
2023/05/21 07:45:13;;;;;;;;;;;;;;;15.76;55.10;100400.22;5049052;28;20045;-70
2023/05/21 07:47:45;;;;;;;0.20;0.20;;;;;;;15.84;54.50;100402.34;5052839;28;19923;-73
2023/05/21 07:50:12;;;;;;;0.20;0.20;;;;;;;15.90;54.14;100402.31;5051002;28;20528;-73
2023/05/21 07:52:39;;;;;;;0.30;0.30;;;;;;;15.87;53.83;100407.25;5053195;28;20048;-72
2023/05/21 07:55:07;;;;;;;0.30;0.30;;;;;;;15.78;54.33;100409.03;5054382;28;20052;-72
2023/05/21 07:57:36;;;;;;;0.30;0.30;;;;;;;16.18;53.72;100413.50;5076328;28;20131;-72
2023/05/21 08:00:17;;;;;;;0.30;0.30;;;;;;;16.61;52.01;100402.34;5040141;28;20119;-73
2023/05/21 08:02:51;;;;;;;0.30;0.30;;;;;;;16.48;52.07;100403.13;5057899;28;20074;-73
2023/05/21 08:05:17;;;;;;;0.30;0.30;;;;;;;16.13;52.57;100412.44;5073827;28;20048;-72
2023/05/21 08:07:45;;;;;;;0.30;0.30;;;;;;;16.12;53.21;100408.03;5056865;28;20036;-73
2023/05/21 08:10:12;;;;;;;0.20;0.20;;;;;;;16.17;52.99;100412.69;5039473;28;20064;-73
2023/05/21 08:12:39;;;;;;;0.30;0.30;;;;;;;16.13;53.02;100411.63;5073750;28;20059;-73
2023/05/21 08:15:07;;;;;;;0.30;0.30;;;;;;;16.16;52.18;100411.88;5068803;28;20410;-68
2023/05/21 08:17:37;;;;;;;0.30;0.30;;;;;;;16.02;53.01;100406.25;5077069;28;20577;-69
2023/05/21 08:20:04;;;;;;;0.30;0.30;;;;;;;16.18;52.72;100397.75;5040206;28;20407;-69
2023/05/21 08:22:32;;;;;;;1.45;0.30;;;;;;;16.47;51.56;100396.78;5054624;28;20051;-71
2023/05/21 08:24:59;;;;;;;0.30;0.30;;;;;;;16.36;50.04;100403.56;5057016;28;20048;-68
2023/05/21 08:27:25;;;;;;;0.50;0.50;;;;;;;16.82;50.01;100396.50;5057623;28;20504;-69
2023/05/21 08:29:52;;;;;;;0.35;0.35;;;;;;;17.48;48.35;100401.94;5059867;28;20117;-69
2023/05/21 08:32:18;;;;;;;0.50;0.50;;;;;;;17.80;47.20;100400.19;5056327;28;20349;-69
2023/05/21 08:34:44;;;;;;;0.30;0.30;;;;;;;18.27;46.04;100399.19;5057310;28;20052;-68
2023/05/21 08:37:31;;;;;;;0.50;0.50;;;;;;;18.42;46.33;100387.75;5076064;28;20039;-73
2023/05/21 08:40:11;;;;;;;0.50;0.50;;;;;;;18.51;45.67;100396.13;5038571;28;20094;-73
2023/05/21 08:42:45;;;;;;;0.40;0.40;;;;;;;19.45;43.58;100393.75;5046706;28;20126;-73
2023/05/21 08:45:19;;;;;;;0.30;0.30;;;;;;;19.41;44.16;100399.09;5037626;28;20044;-73
2023/05/21 08:47:46;;;;;;;0.50;0.40;;;;;;;18.87;44.16;100396.38;5037500;28;20048;-68
2023/05/21 08:50:19;;;;;;;0.50;0.50;;;;;;;18.40;45.00;100400.28;5055937;28;20131;-69
2023/05/21 08:52:46;;;;;;;0.38;0.38;;;;;;;18.23;45.21;100401.75;5051148;28;20044;-69
2023/05/21 08:55:16;;;;;;;0.30;0.30;;;;;;;17.93;45.66;100400.47;5062806;28;20052;-73
2023/05/21 08:57:43;;;;;;;0.60;0.60;;;;;;;17.78;45.86;100394.16;5043562;28;20040;-73
2023/05/21 09:00:11;;;;;;;0.60;0.60;;;;;;;18.55;43.94;100404.63;5056165;28;20040;-68
2023/05/21 09:02:42;;;;;;;0.60;0.60;;;;;;;19.88;40.47;100406.09;5038595;28;20071;-68
2023/05/21 09:05:09;;;;;;;0.30;0.30;;;;;;;20.20;39.17;100398.50;5058876;28;20098;-68
2023/05/21 09:07:41;;;;;;;0.32;0.32;;;;;;;19.07;40.68;100395.88;5054491;28;20035;-68
2023/05/21 09:10:26;;;;;;;0.30;0.30;;;;;;;18.82;42.38;100397.34;5039096;28;20372;-68
2023/05/21 09:12:52;;;;;;;0.30;0.30;;;;;;;18.59;42.86;100402.06;5064994;28;20718;-69
2023/05/21 09:15:19;;;;;;;0.30;0.30;;;;;;;18.38;43.82;100391.47;5059288;28;20048;-68
2023/05/21 09:17:49;;;;;;;0.70;0.70;;;;;;;18.89;42.17;100407.94;5074231;28;20373;-70
2023/05/21 09:20:34;;;;;;;0.60;0.60;;;;;;;21.06;38.22;100400.72;5081750;28;20040;-69
2023/05/21 09:23:04;;;;;;;2.47;1.25;;;;;;;21.52;35.46;100393.50;5074730;28;20116;-69
2023/05/21 09:25:32;;;;;;;0.70;0.70;;;;;;;21.94;34.96;100389.22;5048544;28;20044;-70
2023/05/21 09:28:11;;;;;;;0.32;0.32;;;;;;;21.78;34.55;100397.34;5070069;28;20055;-70
2023/05/21 09:30:43;;;;;;;0.40;0.40;;;;;;;20.64;36.41;100409.63;5052373;28;20059;-69
2023/05/21 09:33:10;;;;;;;0.70;0.70;;;;;;;21.01;36.08;100403.69;5057707;28;20548;-69
2023/05/21 09:35:36;;;;;;;;;;;;;;;21.82;35.03;100398.28;5075378;28;20059;-69
2023/05/21 09:38:08;;;;;;;0.60;0.60;;;;;;;21.88;35.25;100394.16;5051411;28;20388;-70
2023/05/21 09:40:36;;;;;;;0.30;0.30;;;;;;;21.73;35.00;100395.56;5055810;28;20090;-73
2023/05/21 09:43:02;;;;;;;0.30;0.30;;;;;;;20.39;36.72;100406.50;5040411;28;20131;-73
2023/05/21 09:45:28;;;;;;;0.30;0.30;;;;;;;19.31;38.34;100411.31;5055853;28;20049;-73
2023/05/21 09:47:57;;;;;;;0.32;0.32;;;;;;;18.23;41.00;100410.06;5069620;28;20506;-72
2023/05/21 09:50:26;;;;;;;0.30;0.30;;;;;;;17.64;42.72;100408.00;5058559;28;20511;-72
2023/05/21 09:52:54;;;;;;;0.30;0.30;;;;;;;17.39;43.37;100410.13;5060040;28;20040;-72
2023/05/21 09:55:22;;;;;;;0.20;0.20;;;;;;;17.20;44.21;100401.91;5055141;28;20036;-72
2023/05/21 09:57:50;;;;;;;0.20;0.20;;;;;;;17.15;44.18;100400.06;5063687;28;20063;-72
2023/05/21 10:00:18;;;;;;;0.30;0.30;;;;;;;17.04;44.46;100406.91;5062394;28;20583;-72
2023/05/21 10:02:46;;;;;;;0.30;0.30;;;;;;;16.93;44.21;100400.72;5040283;28;20052;-71
2023/05/21 10:05:13;;;;;;;0.20;0.20;;;;;;;16.71;43.16;100404.94;5070671;28;20395;-72
2023/05/21 10:07:41;;;;;;;0.30;0.30;;;;;;;16.45;43.33;100405.34;5055686;28;20495;-69
2023/05/21 10:10:11;;;;;;;0.30;0.30;;;;;;;16.39;43.86;100405.72;5056410;28;20136;-68
2023/05/21 10:12:40;;;;;;;0.30;0.30;;;;;;;16.41;43.97;100409.03;5071227;28;20128;-68
2023/05/21 10:15:14;;;;;;;0.30;0.30;;;;;;;16.31;44.34;100409.97;5055155;28;20205;-69
2023/05/21 10:17:40;;;;;;;0.30;0.30;;;;;;;16.18;43.95;100413.50;5044230;28;20051;-72
2023/05/21 10:20:09;;;;;;;0.30;0.30;;;;;;;16.16;44.45;100422.91;5076647;28;20518;-72
2023/05/21 10:22:36;;;;;;;0.30;0.30;;;;;;;16.17;44.45;100418.19;5055790;28;20526;-72
2023/05/21 10:25:04;;;;;;;0.30;0.30;;;;;;;16.24;44.37;100420.59;5074119;28;20040;-72
2023/05/21 10:27:33;;;;;;;0.30;0.30;;;;;;;16.52;44.33;100413.25;5074600;28;20097;-69
2023/05/21 10:30:00;;;;;;;0.50;0.50;;;;;;;17.13;43.78;100415.31;5054818;28;20044;-71
2023/05/21 10:32:29;;;;;;;0.30;0.30;;;;;;;17.74;42.94;100408.91;5055925;28;20125;-72
2023/05/21 10:34:59;;;;;;;0.63;0.40;;;;;;;18.27;41.83;100408.34;5072069;28;20041;-72
2023/05/21 10:37:26;;;;;;;0.47;0.47;;;;;;;18.63;41.28;100411.38;5071470;28;20064;-72
2023/05/21 10:39:52;;;;;;;;;;;;;;;20.33;37.86;100419.75;5070774;28;20047;-72
2023/05/21 10:42:25;;;;;;;1.10;1.10;;;;;;;22.32;35.17;100412.50;5034880;28;19924;-73
2023/05/21 10:45:05;;;;;;;0.60;0.60;;;;;;;23.58;32.92;100412.56;5054042;28;20055;-73
2023/05/21 10:48:07;;;;;;;0.80;0.80;;;;;;;23.65;32.01;100396.84;5072813;28;20040;-72
2023/05/21 10:50:51;;;;;;;1.10;1.10;;;;;;;24.84;30.45;100406.38;5072211;28;20055;-70
2023/05/21 10:53:24;;;;;;;1.20;1.10;;;;;;;25.96;29.46;100403.53;5070260;28;20051;-71
2023/05/21 10:56:00;;;;;;;1.20;1.20;;;;;;;26.43;27.80;100389.75;5036285;28;20036;-72
2023/05/21 10:59:02;;;;;;;1.30;1.20;;;;;;;26.56;27.09;100404.44;5050657;28;20507;-73
2023/05/21 11:01:34;;;;;;;0.50;0.50;;;;;;;24.83;29.25;100411.13;5057325;28;20542;-70
2023/05/21 11:04:20;;;;;;;0.50;0.50;;;;;;;23.21;31.14;100416.94;5070000;28;20535;-70
2023/05/21 11:06:48;;;;;;;0.60;0.60;;;;;;;22.42;32.59;100431.59;5047284;28;20044;-70
2023/05/21 11:09:15;;;;;;;0.55;0.55;;;;;;;21.73;33.21;100430.94;5053989;28;20098;-73
2023/05/21 11:11:47;;;;;;;0.80;0.80;;;;;;;21.76;33.39;100422.69;5053622;28;20051;-73
2023/05/21 11:14:31;;;;;;;0.65;0.65;;;;;;;22.15;33.02;100416.25;5050862;28;20495;-74
2023/05/21 11:17:02;;;;;;;0.60;0.60;;;;;;;22.42;32.84;100414.88;5066637;28;20124;-70
2023/05/21 11:19:36;;;;;;;0.50;0.50;;;;;;;21.83;32.70;100424.97;5022440;28;20368;-70
2023/05/21 11:22:06;;;;;;;0.40;0.40;;;;;;;20.91;34.01;100425.13;5066595;28;20090;-70
2023/05/21 11:24:35;;;;;;;0.40;0.40;;;;;;;20.32;35.14;100425.63;5054071;28;20443;-70
2023/05/21 11:27:03;;;;;;;0.40;0.40;;;;;;;19.93;35.83;100422.66;5057240;28;20503;-69
2023/05/21 11:29:40;;;;;;;0.73;0.73;;;;;;;20.18;35.91;100420.22;5073712;28;20531;-70
2023/05/21 11:32:16;;;;;;;0.50;0.50;;;;;;;20.60;35.62;100430.84;4985304;28;10000778;-70
2023/05/21 11:34:44;;;;;;;1.40;1.30;;;;;;;21.45;34.42;100414.66;5067567;28;20366;-70